sensor_id;sensor_type;location;lat;lon;timestamp;P1;durP1;ratioP1;P2;durP2;ratioP2
12511;SDS011;6321;53.798;10.382;2022-09-12T00:01:11;1.83;;;1.50;;
12511;SDS011;6321;53.798;10.382;2022-09-12T00:03:39;1.40;;;1.30;;
12511;SDS011;6321;53.798;10.382;2022-09-12T00:06:16;1.30;;;1.20;;
12511;SDS011;6321;53.798;10.382;2022-09-12T00:08:44;1.50;;;1.40;;
12511;SDS011;6321;53.798;10.382;2022-09-12T00:11:13;1.30;;;1.20;;
12511;SDS011;6321;53.798;10.382;2022-09-12T00:13:42;1.57;;;1.47;;
12511;SDS011;6321;53.798;10.382;2022-09-12T00:16:13;1.40;;;1.30;;
12511;SDS011;6321;53.798;10.382;2022-09-12T00:18:42;1.30;;;1.20;;
12511;SDS011;6321;53.798;10.382;2022-09-12T00:21:11;1.20;;;1.10;;
12511;SDS011;6321;53.798;10.382;2022-09-12T00:23:40;1.30;;;1.17;;
12511;SDS011;6321;53.798;10.382;2022-09-12T00:26:09;1.40;;;1.30;;
12511;SDS011;6321;53.798;10.382;2022-09-12T00:28:38;1.43;;;1.20;;
12511;SDS011;6321;53.798;10.382;2022-09-12T00:31:09;1.00;;;1.00;;
12511;SDS011;6321;53.798;10.382;2022-09-12T00:33:38;2.20;;;1.30;;
12511;SDS011;6321;53.798;10.382;2022-09-12T00:36:12;1.60;;;1.10;;
12511;SDS011;6321;53.798;10.382;2022-09-12T00:38:39;2.83;;;1.00;;
12511;SDS011;6321;53.798;10.382;2022-09-12T00:46:39;1.30;;;1.20;;
12511;SDS011;6321;53.798;10.382;2022-09-12T00:52:02;1.20;;;1.10;;
12511;SDS011;6321;53.798;10.382;2022-09-12T00:54:31;1.33;;;1.03;;
12511;SDS011;6321;53.798;10.382;2022-09-12T00:57:02;1.33;;;1.17;;
12511;SDS011;6321;53.798;10.382;2022-09-12T00:59:42;1.70;;;0.93;;
12511;SDS011;6321;53.798;10.382;2022-09-12T01:02:12;1.13;;;0.90;;
12511;SDS011;6321;53.798;10.382;2022-09-12T01:04:41;1.20;;;1.10;;
12511;SDS011;6321;53.798;10.382;2022-09-12T01:07:08;4.13;;;1.10;;
12511;SDS011;6321;53.798;10.382;2022-09-12T01:09:39;2.77;;;1.17;;
12511;SDS011;6321;53.798;10.382;2022-09-12T01:12:09;1.90;;;1.13;;
12511;SDS011;6321;53.798;10.382;2022-09-12T01:14:37;1.17;;;1.07;;
12511;SDS011;6321;53.798;10.382;2022-09-12T01:17:06;2.43;;;1.40;;
12511;SDS011;6321;53.798;10.382;2022-09-12T01:24:59;1.40;;;1.30;;
12511;SDS011;6321;53.798;10.382;2022-09-12T01:35:29;3.57;;;1.70;;
12511;SDS011;6321;53.798;10.382;2022-09-12T01:38:11;3.10;;;1.50;;
12511;SDS011;6321;53.798;10.382;2022-09-12T01:40:47;2.27;;;1.50;;
12511;SDS011;6321;53.798;10.382;2022-09-12T01:46:08;1.70;;;1.60;;
12511;SDS011;6321;53.798;10.382;2022-09-12T01:48:43;1.60;;;1.50;;
12511;SDS011;6321;53.798;10.382;2022-09-12T01:53:47;2.87;;;2.67;;
12511;SDS011;6321;53.798;10.382;2022-09-12T01:56:25;2.73;;;2.30;;
12511;SDS011;6321;53.798;10.382;2022-09-12T01:59:00;2.23;;;1.80;;
12511;SDS011;6321;53.798;10.382;2022-09-12T02:01:30;1.87;;;1.77;;
12511;SDS011;6321;53.798;10.382;2022-09-12T02:06:31;3.00;;;1.60;;
12511;SDS011;6321;53.798;10.382;2022-09-12T02:09:04;3.13;;;2.07;;
12511;SDS011;6321;53.798;10.382;2022-09-12T02:11:33;2.57;;;1.93;;
12511;SDS011;6321;53.798;10.382;2022-09-12T02:14:07;3.87;;;1.70;;
12511;SDS011;6321;53.798;10.382;2022-09-12T02:16:40;3.20;;;1.70;;
12511;SDS011;6321;53.798;10.382;2022-09-12T02:19:15;1.80;;;1.70;;
12511;SDS011;6321;53.798;10.382;2022-09-12T02:21:57;2.83;;;1.50;;
12511;SDS011;6321;53.798;10.382;2022-09-12T02:24:32;2.50;;;1.90;;
12511;SDS011;6321;53.798;10.382;2022-09-12T02:27:05;2.30;;;2.00;;
12511;SDS011;6321;53.798;10.382;2022-09-12T02:29:35;1.77;;;1.67;;
12511;SDS011;6321;53.798;10.382;2022-09-12T02:32:05;1.90;;;1.80;;
12511;SDS011;6321;53.798;10.382;2022-09-12T02:34:40;1.50;;;1.40;;
12511;SDS011;6321;53.798;10.382;2022-09-12T02:37:22;2.20;;;1.70;;
12511;SDS011;6321;53.798;10.382;2022-09-12T02:39:53;3.60;;;1.60;;
12511;SDS011;6321;53.798;10.382;2022-09-12T02:42:21;4.73;;;2.03;;
12511;SDS011;6321;53.798;10.382;2022-09-12T02:44:51;3.03;;;2.47;;
12511;SDS011;6321;53.798;10.382;2022-09-12T02:47:26;3.23;;;1.77;;
12511;SDS011;6321;53.798;10.382;2022-09-12T02:49:56;1.83;;;1.73;;
12511;SDS011;6321;53.798;10.382;2022-09-12T02:52:26;3.10;;;2.10;;
12511;SDS011;6321;53.798;10.382;2022-09-12T02:54:56;3.67;;;2.77;;
12511;SDS011;6321;53.798;10.382;2022-09-12T02:57:25;2.70;;;2.50;;
12511;SDS011;6321;53.798;10.382;2022-09-12T02:59:55;2.97;;;1.93;;
12511;SDS011;6321;53.798;10.382;2022-09-12T03:15:14;2.23;;;2.07;;
12511;SDS011;6321;53.798;10.382;2022-09-12T03:25:47;2.10;;;1.90;;
12511;SDS011;6321;53.798;10.382;2022-09-12T03:28:17;1.90;;;1.80;;
12511;SDS011;6321;53.798;10.382;2022-09-12T03:30:47;3.20;;;1.90;;
12511;SDS011;6321;53.798;10.382;2022-09-12T03:33:22;2.40;;;2.20;;
12511;SDS011;6321;53.798;10.382;2022-09-12T03:35:51;3.37;;;2.53;;
12511;SDS011;6321;53.798;10.382;2022-09-12T03:38:20;2.67;;;2.47;;
12511;SDS011;6321;53.798;10.382;2022-09-12T03:40:49;3.50;;;2.53;;
12511;SDS011;6321;53.798;10.382;2022-09-12T03:43:17;4.93;;;2.50;;
12511;SDS011;6321;53.798;10.382;2022-09-12T03:45:48;7.30;;;3.20;;
12511;SDS011;6321;53.798;10.382;2022-09-12T03:48:17;3.50;;;2.43;;
12511;SDS011;6321;53.798;10.382;2022-09-12T03:50:46;2.57;;;2.20;;
12511;SDS011;6321;53.798;10.382;2022-09-12T03:53:15;2.50;;;2.30;;
12511;SDS011;6321;53.798;10.382;2022-09-12T03:55:43;2.57;;;2.37;;
12511;SDS011;6321;53.798;10.382;2022-09-12T03:58:12;3.47;;;2.40;;
12511;SDS011;6321;53.798;10.382;2022-09-12T04:00:41;2.73;;;2.10;;
12511;SDS011;6321;53.798;10.382;2022-09-12T04:03:09;2.73;;;2.53;;
12511;SDS011;6321;53.798;10.382;2022-09-12T04:05:38;2.53;;;2.33;;
12511;SDS011;6321;53.798;10.382;2022-09-12T04:08:07;2.53;;;2.33;;
12511;SDS011;6321;53.798;10.382;2022-09-12T04:10:35;2.10;;;1.90;;
12511;SDS011;6321;53.798;10.382;2022-09-12T04:13:04;6.93;;;2.13;;
12511;SDS011;6321;53.798;10.382;2022-09-12T04:15:33;2.27;;;2.10;;
12511;SDS011;6321;53.798;10.382;2022-09-12T04:18:01;2.43;;;2.20;;
12511;SDS011;6321;53.798;10.382;2022-09-12T04:20:30;2.33;;;2.13;;
12511;SDS011;6321;53.798;10.382;2022-09-12T04:22:57;2.33;;;2.13;;
12511;SDS011;6321;53.798;10.382;2022-09-12T04:25:26;9.40;;;2.60;;
12511;SDS011;6321;53.798;10.382;2022-09-12T04:27:55;4.90;;;2.20;;
12511;SDS011;6321;53.798;10.382;2022-09-12T04:30:24;2.20;;;2.00;;
12511;SDS011;6321;53.798;10.382;2022-09-12T04:32:52;2.53;;;2.33;;
12511;SDS011;6321;53.798;10.382;2022-09-12T04:35:21;3.97;;;3.00;;
12511;SDS011;6321;53.798;10.382;2022-09-12T04:37:50;4.70;;;2.60;;
12511;SDS011;6321;53.798;10.382;2022-09-12T04:40:19;4.87;;;2.90;;
12511;SDS011;6321;53.798;10.382;2022-09-12T04:42:48;3.00;;;2.70;;
12511;SDS011;6321;53.798;10.382;2022-09-12T04:45:16;2.80;;;2.60;;
12511;SDS011;6321;53.798;10.382;2022-09-12T04:47:45;3.83;;;3.10;;
12511;SDS011;6321;53.798;10.382;2022-09-12T04:50:14;4.97;;;3.00;;
12511;SDS011;6321;53.798;10.382;2022-09-12T04:52:42;4.60;;;3.73;;
12511;SDS011;6321;53.798;10.382;2022-09-12T04:55:11;3.23;;;2.43;;
12511;SDS011;6321;53.798;10.382;2022-09-12T04:57:40;2.50;;;2.30;;
12511;SDS011;6321;53.798;10.382;2022-09-12T05:00:09;2.50;;;2.20;;
12511;SDS011;6321;53.798;10.382;2022-09-12T05:02:38;5.93;;;2.70;;
12511;SDS011;6321;53.798;10.382;2022-09-12T05:05:08;2.47;;;2.27;;
12511;SDS011;6321;53.798;10.382;2022-09-12T05:07:37;2.60;;;2.40;;
12511;SDS011;6321;53.798;10.382;2022-09-12T05:10:06;3.13;;;2.27;;
12511;SDS011;6321;53.798;10.382;2022-09-12T05:12:36;5.70;;;2.70;;
12511;SDS011;6321;53.798;10.382;2022-09-12T05:15:05;3.07;;;2.30;;
12511;SDS011;6321;53.798;10.382;2022-09-12T05:17:34;2.83;;;2.53;;
12511;SDS011;6321;53.798;10.382;2022-09-12T05:20:02;3.70;;;2.50;;
12511;SDS011;6321;53.798;10.382;2022-09-12T05:22:33;4.23;;;2.70;;
12511;SDS011;6321;53.798;10.382;2022-09-12T05:25:02;4.43;;;2.67;;
12511;SDS011;6321;53.798;10.382;2022-09-12T05:27:30;5.87;;;2.83;;
12511;SDS011;6321;53.798;10.382;2022-09-12T05:29:59;2.53;;;2.33;;
12511;SDS011;6321;53.798;10.382;2022-09-12T05:32:29;2.60;;;2.40;;
12511;SDS011;6321;53.798;10.382;2022-09-12T05:34:57;6.40;;;2.80;;
12511;SDS011;6321;53.798;10.382;2022-09-12T05:37:25;4.60;;;2.63;;
12511;SDS011;6321;53.798;10.382;2022-09-12T05:39:54;4.80;;;3.20;;
12511;SDS011;6321;53.798;10.382;2022-09-12T05:42:23;2.83;;;2.53;;
12511;SDS011;6321;53.798;10.382;2022-09-12T05:44:52;2.80;;;2.60;;
12511;SDS011;6321;53.798;10.382;2022-09-12T05:47:21;4.80;;;3.07;;
12511;SDS011;6321;53.798;10.382;2022-09-12T05:49:49;2.80;;;2.47;;
12511;SDS011;6321;53.798;10.382;2022-09-12T05:52:18;3.40;;;3.10;;
12511;SDS011;6321;53.798;10.382;2022-09-12T05:54:47;3.87;;;3.57;;
12511;SDS011;6321;53.798;10.382;2022-09-12T05:57:16;2.93;;;2.60;;
12511;SDS011;6321;53.798;10.382;2022-09-12T05:59:44;4.70;;;3.27;;
12511;SDS011;6321;53.798;10.382;2022-09-12T06:02:13;4.67;;;3.83;;
12511;SDS011;6321;53.798;10.382;2022-09-12T06:04:42;4.73;;;3.87;;
12511;SDS011;6321;53.798;10.382;2022-09-12T06:07:11;5.40;;;4.90;;
12511;SDS011;6321;53.798;10.382;2022-09-12T06:09:40;4.13;;;3.80;;
12511;SDS011;6321;53.798;10.382;2022-09-12T06:12:08;5.30;;;4.80;;
12511;SDS011;6321;53.798;10.382;2022-09-12T06:14:37;4.87;;;4.47;;
12511;SDS011;6321;53.798;10.382;2022-09-12T06:17:06;4.47;;;4.07;;
12511;SDS011;6321;53.798;10.382;2022-09-12T06:19:34;4.90;;;4.50;;
12511;SDS011;6321;53.798;10.382;2022-09-12T06:22:03;4.97;;;4.57;;
12511;SDS011;6321;53.798;10.382;2022-09-12T06:24:32;4.23;;;3.93;;
12511;SDS011;6321;53.798;10.382;2022-09-12T06:27:00;4.80;;;4.03;;
12511;SDS011;6321;53.798;10.382;2022-09-12T06:29:29;6.37;;;5.17;;
12511;SDS011;6321;53.798;10.382;2022-09-12T06:31:58;5.90;;;5.40;;
12511;SDS011;6321;53.798;10.382;2022-09-12T06:34:27;6.03;;;4.77;;
12511;SDS011;6321;53.798;10.382;2022-09-12T06:36:55;7.37;;;5.93;;
12511;SDS011;6321;53.798;10.382;2022-09-12T06:39:24;6.40;;;5.80;;
12511;SDS011;6321;53.798;10.382;2022-09-12T06:41:53;7.47;;;6.87;;
12511;SDS011;6321;53.798;10.382;2022-09-12T06:44:22;8.83;;;7.33;;
12511;SDS011;6321;53.798;10.382;2022-09-12T06:46:50;7.60;;;6.90;;
12511;SDS011;6321;53.798;10.382;2022-09-12T06:49:19;8.27;;;7.53;;
12511;SDS011;6321;53.798;10.382;2022-09-12T06:51:48;10.53;;;7.97;;
12511;SDS011;6321;53.798;10.382;2022-09-12T06:54:16;8.97;;;8.03;;
12511;SDS011;6321;53.798;10.382;2022-09-12T06:56:45;11.07;;;8.27;;
12511;SDS011;6321;53.798;10.382;2022-09-12T06:59:14;9.50;;;8.60;;
12511;SDS011;6321;53.798;10.382;2022-09-12T07:01:42;9.03;;;8.23;;
12511;SDS011;6321;53.798;10.382;2022-09-12T07:04:11;8.80;;;8.07;;
12511;SDS011;6321;53.798;10.382;2022-09-12T07:06:40;8.67;;;7.60;;
12511;SDS011;6321;53.798;10.382;2022-09-12T07:09:10;7.90;;;7.10;;
12511;SDS011;6321;53.798;10.382;2022-09-12T07:11:42;8.40;;;6.83;;
12511;SDS011;6321;53.798;10.382;2022-09-12T07:14:12;7.17;;;6.40;;
12511;SDS011;6321;53.798;10.382;2022-09-12T07:16:41;6.90;;;6.30;;
12511;SDS011;6321;53.798;10.382;2022-09-12T07:19:10;8.30;;;6.10;;
12511;SDS011;6321;53.798;10.382;2022-09-12T07:21:39;6.17;;;5.57;;
12511;SDS011;6321;53.798;10.382;2022-09-12T07:24:08;6.27;;;5.67;;
12511;SDS011;6321;53.798;10.382;2022-09-12T07:26:38;8.67;;;5.60;;
12511;SDS011;6321;53.798;10.382;2022-09-12T07:29:11;5.43;;;5.03;;
12511;SDS011;6321;53.798;10.382;2022-09-12T07:31:40;12.37;;;5.67;;
12511;SDS011;6321;53.798;10.382;2022-09-12T07:34:09;6.00;;;5.47;;
12511;SDS011;6321;53.798;10.382;2022-09-12T07:36:38;10.47;;;5.60;;
12511;SDS011;6321;53.798;10.382;2022-09-12T07:39:07;6.50;;;5.90;;
12511;SDS011;6321;53.798;10.382;2022-09-12T07:41:36;6.60;;;5.90;;
12511;SDS011;6321;53.798;10.382;2022-09-12T07:44:05;6.00;;;5.50;;
12511;SDS011;6321;53.798;10.382;2022-09-12T07:46:34;4.77;;;4.37;;
12511;SDS011;6321;53.798;10.382;2022-09-12T07:49:03;5.90;;;5.40;;
12511;SDS011;6321;53.798;10.382;2022-09-12T07:51:32;8.07;;;7.37;;
12511;SDS011;6321;53.798;10.382;2022-09-12T07:54:01;12.60;;;11.40;;
12511;SDS011;6321;53.798;10.382;2022-09-12T07:56:34;10.37;;;9.23;;
12511;SDS011;6321;53.798;10.382;2022-09-12T07:59:06;8.57;;;7.33;;
12511;SDS011;6321;53.798;10.382;2022-09-12T08:01:35;7.30;;;4.77;;
12511;SDS011;6321;53.798;10.382;2022-09-12T08:04:04;6.73;;;6.13;;
12511;SDS011;6321;53.798;10.382;2022-09-12T08:06:33;5.70;;;5.20;;
12511;SDS011;6321;53.798;10.382;2022-09-12T08:09:02;3.93;;;3.30;;
12511;SDS011;6321;53.798;10.382;2022-09-12T08:11:31;3.80;;;3.40;;
12511;SDS011;6321;53.798;10.382;2022-09-12T08:14:01;3.77;;;3.30;;
12511;SDS011;6321;53.798;10.382;2022-09-12T08:16:30;6.30;;;4.93;;
12511;SDS011;6321;53.798;10.382;2022-09-12T08:19:00;5.50;;;4.30;;
12511;SDS011;6321;53.798;10.382;2022-09-12T08:21:30;6.17;;;5.03;;
12511;SDS011;6321;53.798;10.382;2022-09-12T08:24:00;5.43;;;3.67;;
12511;SDS011;6321;53.798;10.382;2022-09-12T08:26:29;6.83;;;3.57;;
12511;SDS011;6321;53.798;10.382;2022-09-12T08:28:58;5.30;;;3.23;;
12511;SDS011;6321;53.798;10.382;2022-09-12T08:31:28;3.80;;;3.17;;
12511;SDS011;6321;53.798;10.382;2022-09-12T08:34:00;3.70;;;3.07;;
12511;SDS011;6321;53.798;10.382;2022-09-12T08:36:29;2.67;;;2.47;;
12511;SDS011;6321;53.798;10.382;2022-09-12T08:38:59;3.73;;;2.63;;
12511;SDS011;6321;53.798;10.382;2022-09-12T08:47:11;2.40;;;1.90;;
12511;SDS011;6321;53.798;10.382;2022-09-12T08:49:51;1.83;;;1.73;;
12511;SDS011;6321;53.798;10.382;2022-09-12T08:52:26;2.27;;;2.00;;
12511;SDS011;6321;53.798;10.382;2022-09-12T08:54:57;4.93;;;2.43;;
12511;SDS011;6321;53.798;10.382;2022-09-12T08:57:26;3.97;;;2.30;;
12511;SDS011;6321;53.798;10.382;2022-09-12T08:59:54;3.10;;;2.20;;
12511;SDS011;6321;53.798;10.382;2022-09-12T09:16:21;2.77;;;2.57;;
12511;SDS011;6321;53.798;10.382;2022-09-12T09:18:52;3.33;;;2.57;;
12511;SDS011;6321;53.798;10.382;2022-09-12T09:21:23;2.73;;;2.37;;
12511;SDS011;6321;53.798;10.382;2022-09-12T09:23:56;2.37;;;2.17;;
12511;SDS011;6321;53.798;10.382;2022-09-12T09:26:30;2.87;;;2.67;;
12511;SDS011;6321;53.798;10.382;2022-09-12T09:29:03;2.90;;;2.70;;
12511;SDS011;6321;53.798;10.382;2022-09-12T09:31:36;3.30;;;3.00;;
12511;SDS011;6321;53.798;10.382;2022-09-12T09:34:13;3.20;;;2.90;;
12511;SDS011;6321;53.798;10.382;2022-09-12T09:44:31;3.40;;;3.10;;
12511;SDS011;6321;53.798;10.382;2022-09-12T09:46:59;4.67;;;3.07;;
12511;SDS011;6321;53.798;10.382;2022-09-12T09:49:30;3.53;;;2.80;;
12511;SDS011;6321;53.798;10.382;2022-09-12T09:51:58;4.63;;;3.17;;
12511;SDS011;6321;53.798;10.382;2022-09-12T09:54:28;4.70;;;2.73;;
12511;SDS011;6321;53.798;10.382;2022-09-12T09:57:00;3.63;;;2.93;;
12511;SDS011;6321;53.798;10.382;2022-09-12T09:59:30;3.70;;;2.77;;
12511;SDS011;6321;53.798;10.382;2022-09-12T10:02:08;2.73;;;2.53;;
12511;SDS011;6321;53.798;10.382;2022-09-12T10:04:55;3.10;;;2.57;;
12511;SDS011;6321;53.798;10.382;2022-09-12T10:07:24;3.20;;;2.90;;
12511;SDS011;6321;53.798;10.382;2022-09-12T10:12:34;3.07;;;2.37;;
12511;SDS011;6321;53.798;10.382;2022-09-12T10:15:12;3.20;;;2.90;;
12511;SDS011;6321;53.798;10.382;2022-09-12T10:17:43;2.83;;;2.60;;
12511;SDS011;6321;53.798;10.382;2022-09-12T10:23:01;2.57;;;2.37;;
12511;SDS011;6321;53.798;10.382;2022-09-12T10:25:27;4.10;;;2.97;;
12511;SDS011;6321;53.798;10.382;2022-09-12T10:27:57;3.70;;;2.10;;
12511;SDS011;6321;53.798;10.382;2022-09-12T10:30:24;4.30;;;2.37;;
12511;SDS011;6321;53.798;10.382;2022-09-12T10:32:55;3.00;;;2.53;;
12511;SDS011;6321;53.798;10.382;2022-09-12T10:35:23;2.10;;;1.90;;
12511;SDS011;6321;53.798;10.382;2022-09-12T10:38:02;2.07;;;1.97;;
12511;SDS011;6321;53.798;10.382;2022-09-12T10:40:34;3.00;;;2.60;;
12511;SDS011;6321;53.798;10.382;2022-09-12T10:43:18;2.97;;;2.67;;
12511;SDS011;6321;53.798;10.382;2022-09-12T10:45:55;3.53;;;2.47;;
12511;SDS011;6321;53.798;10.382;2022-09-12T10:48:28;2.67;;;2.47;;
12511;SDS011;6321;53.798;10.382;2022-09-12T10:50:55;2.50;;;2.30;;
12511;SDS011;6321;53.798;10.382;2022-09-12T10:53:25;2.93;;;2.10;;
12511;SDS011;6321;53.798;10.382;2022-09-12T10:55:58;2.23;;;2.13;;
12511;SDS011;6321;53.798;10.382;2022-09-12T10:58:32;2.60;;;2.40;;
12511;SDS011;6321;53.798;10.382;2022-09-12T11:01:15;2.27;;;2.00;;
12511;SDS011;6321;53.798;10.382;2022-09-12T11:03:59;2.97;;;2.47;;
12511;SDS011;6321;53.798;10.382;2022-09-12T11:06:31;2.17;;;1.90;;
12511;SDS011;6321;53.798;10.382;2022-09-12T11:09:05;1.93;;;1.83;;
12511;SDS011;6321;53.798;10.382;2022-09-12T11:11:39;3.40;;;2.20;;
12511;SDS011;6321;53.798;10.382;2022-09-12T11:25:06;3.17;;;2.30;;
12511;SDS011;6321;53.798;10.382;2022-09-12T11:27:59;3.70;;;2.10;;
12511;SDS011;6321;53.798;10.382;2022-09-12T11:30:27;2.50;;;2.30;;
12511;SDS011;6321;53.798;10.382;2022-09-12T11:35:44;2.53;;;2.33;;
12511;SDS011;6321;53.798;10.382;2022-09-12T11:38:22;3.00;;;2.77;;
12511;SDS011;6321;53.798;10.382;2022-09-12T11:40:58;2.67;;;2.10;;
12511;SDS011;6321;53.798;10.382;2022-09-12T11:43:38;3.77;;;2.57;;
12511;SDS011;6321;53.798;10.382;2022-09-12T11:46:11;3.57;;;2.67;;
12511;SDS011;6321;53.798;10.382;2022-09-12T11:51:14;2.50;;;1.80;;
12511;SDS011;6321;53.798;10.382;2022-09-12T11:53:42;1.73;;;1.63;;
12511;SDS011;6321;53.798;10.382;2022-09-12T11:56:13;4.90;;;2.00;;
12511;SDS011;6321;53.798;10.382;2022-09-12T11:58:40;2.13;;;1.50;;
12511;SDS011;6321;53.798;10.382;2022-09-12T12:03:36;1.60;;;1.50;;
12511;SDS011;6321;53.798;10.382;2022-09-12T12:06:06;1.70;;;1.53;;
12511;SDS011;6321;53.798;10.382;2022-09-12T12:08:39;1.80;;;1.70;;
12511;SDS011;6321;53.798;10.382;2022-09-12T12:11:06;2.40;;;1.60;;
12511;SDS011;6321;53.798;10.382;2022-09-12T12:13:34;1.97;;;1.53;;
12511;SDS011;6321;53.798;10.382;2022-09-12T12:16:06;2.63;;;1.60;;
12511;SDS011;6321;53.798;10.382;2022-09-12T12:18:32;3.20;;;1.70;;
12511;SDS011;6321;53.798;10.382;2022-09-12T12:24:02;1.90;;;1.70;;
12511;SDS011;6321;53.798;10.382;2022-09-12T12:29:07;2.13;;;1.70;;
12511;SDS011;6321;53.798;10.382;2022-09-12T12:32:17;1.73;;;1.63;;
12511;SDS011;6321;53.798;10.382;2022-09-12T12:34:35;1.90;;;1.80;;
12511;SDS011;6321;53.798;10.382;2022-09-12T12:45:03;1.50;;;1.40;;
12511;SDS011;6321;53.798;10.382;2022-09-12T12:47:52;2.07;;;1.43;;
12511;SDS011;6321;53.798;10.382;2022-09-12T12:52:49;1.67;;;1.57;;
12511;SDS011;6321;53.798;10.382;2022-09-12T12:55:18;2.37;;;1.50;;
12511;SDS011;6321;53.798;10.382;2022-09-12T12:57:50;1.67;;;1.50;;
12511;SDS011;6321;53.798;10.382;2022-09-12T13:02:56;2.40;;;1.43;;
12511;SDS011;6321;53.798;10.382;2022-09-12T13:05:24;2.00;;;1.80;;
12511;SDS011;6321;53.798;10.382;2022-09-12T13:07:55;2.33;;;1.93;;
12511;SDS011;6321;53.798;10.382;2022-09-12T13:10:24;1.93;;;1.47;;
12511;SDS011;6321;53.798;10.382;2022-09-12T13:12:52;1.60;;;1.37;;
12511;SDS011;6321;53.798;10.382;2022-09-12T13:18:38;2.00;;;1.80;;
12511;SDS011;6321;53.798;10.382;2022-09-12T13:21:06;4.47;;;2.07;;
12511;SDS011;6321;53.798;10.382;2022-09-12T13:23:33;1.90;;;1.70;;
12511;SDS011;6321;53.798;10.382;2022-09-12T13:25:59;2.53;;;2.00;;
12511;SDS011;6321;53.798;10.382;2022-09-12T13:28:29;2.33;;;2.17;;
12511;SDS011;6321;53.798;10.382;2022-09-12T13:31:06;2.10;;;1.90;;
12511;SDS011;6321;53.798;10.382;2022-09-12T13:33:49;3.67;;;2.23;;
12511;SDS011;6321;53.798;10.382;2022-09-12T13:36:26;2.43;;;2.23;;
12511;SDS011;6321;53.798;10.382;2022-09-12T13:39:07;2.47;;;2.00;;
12511;SDS011;6321;53.798;10.382;2022-09-12T13:44:20;2.60;;;2.33;;
12511;SDS011;6321;53.798;10.382;2022-09-12T13:46:47;3.23;;;1.90;;
12511;SDS011;6321;53.798;10.382;2022-09-12T13:49:18;3.67;;;2.53;;
12511;SDS011;6321;53.798;10.382;2022-09-12T13:51:45;5.03;;;2.37;;
12511;SDS011;6321;53.798;10.382;2022-09-12T13:54:17;2.50;;;2.30;;
12511;SDS011;6321;53.798;10.382;2022-09-12T13:56:47;3.00;;;2.13;;
12511;SDS011;6321;53.798;10.382;2022-09-12T13:59:13;5.33;;;2.63;;
12511;SDS011;6321;53.798;10.382;2022-09-12T14:01:40;3.17;;;2.30;;
12511;SDS011;6321;53.798;10.382;2022-09-12T14:04:18;2.33;;;2.20;;
12511;SDS011;6321;53.798;10.382;2022-09-12T14:07:10;4.03;;;2.77;;
12511;SDS011;6321;53.798;10.382;2022-09-12T14:09:38;2.40;;;2.23;;
12511;SDS011;6321;53.798;10.382;2022-09-12T14:12:10;2.37;;;2.10;;
12511;SDS011;6321;53.798;10.382;2022-09-12T14:14:42;2.13;;;1.93;;
12511;SDS011;6321;53.798;10.382;2022-09-12T14:17:17;2.23;;;2.03;;
12511;SDS011;6321;53.798;10.382;2022-09-12T14:19:46;2.37;;;2.17;;
12511;SDS011;6321;53.798;10.382;2022-09-12T14:22:13;1.80;;;1.70;;
12511;SDS011;6321;53.798;10.382;2022-09-12T14:24:41;2.20;;;1.90;;
12511;SDS011;6321;53.798;10.382;2022-09-12T14:27:08;2.30;;;2.10;;
12511;SDS011;6321;53.798;10.382;2022-09-12T14:29:34;3.13;;;2.47;;
12511;SDS011;6321;53.798;10.382;2022-09-12T14:32:01;2.23;;;1.87;;
12511;SDS011;6321;53.798;10.382;2022-09-12T14:34:27;3.10;;;1.93;;
12511;SDS011;6321;53.798;10.382;2022-09-12T14:36:54;2.00;;;1.90;;
12511;SDS011;6321;53.798;10.382;2022-09-12T14:39:26;2.47;;;1.97;;
12511;SDS011;6321;53.798;10.382;2022-09-12T14:42:02;3.27;;;2.00;;
12511;SDS011;6321;53.798;10.382;2022-09-12T14:44:28;2.17;;;1.97;;
12511;SDS011;6321;53.798;10.382;2022-09-12T14:46:55;1.90;;;1.80;;
12511;SDS011;6321;53.798;10.382;2022-09-12T14:49:30;2.00;;;1.90;;
12511;SDS011;6321;53.798;10.382;2022-09-12T14:51:57;2.40;;;1.87;;
12511;SDS011;6321;53.798;10.382;2022-09-12T14:56:54;2.10;;;1.90;;
12511;SDS011;6321;53.798;10.382;2022-09-12T14:59:35;1.90;;;1.80;;
12511;SDS011;6321;53.798;10.382;2022-09-12T15:02:16;1.97;;;1.87;;
12511;SDS011;6321;53.798;10.382;2022-09-12T15:04:47;1.83;;;1.73;;
12511;SDS011;6321;53.798;10.382;2022-09-12T15:07:14;2.87;;;2.00;;
12511;SDS011;6321;53.798;10.382;2022-09-12T15:09:40;2.20;;;2.00;;
12511;SDS011;6321;53.798;10.382;2022-09-12T15:12:07;1.90;;;1.73;;
12511;SDS011;6321;53.798;10.382;2022-09-12T15:14:35;1.80;;;1.70;;
12511;SDS011;6321;53.798;10.382;2022-09-12T15:17:01;1.97;;;1.70;;
12511;SDS011;6321;53.798;10.382;2022-09-12T15:19:27;2.10;;;1.90;;
12511;SDS011;6321;53.798;10.382;2022-09-12T15:21:53;3.40;;;1.97;;
12511;SDS011;6321;53.798;10.382;2022-09-12T15:24:19;2.03;;;1.60;;
12511;SDS011;6321;53.798;10.382;2022-09-12T15:26:45;4.00;;;1.97;;
12511;SDS011;6321;53.798;10.382;2022-09-12T15:29:10;2.03;;;1.77;;
12511;SDS011;6321;53.798;10.382;2022-09-12T15:31:36;2.70;;;1.77;;
12511;SDS011;6321;53.798;10.382;2022-09-12T15:34:04;3.63;;;2.00;;
12511;SDS011;6321;53.798;10.382;2022-09-12T15:36:30;2.00;;;1.80;;
12511;SDS011;6321;53.798;10.382;2022-09-12T15:38:56;4.53;;;1.77;;
12511;SDS011;6321;53.798;10.382;2022-09-12T15:41:30;2.20;;;2.00;;
12511;SDS011;6321;53.798;10.382;2022-09-12T15:43:57;2.53;;;2.33;;
12511;SDS011;6321;53.798;10.382;2022-09-12T15:46:23;2.80;;;2.00;;
12511;SDS011;6321;53.798;10.382;2022-09-12T15:48:48;4.60;;;2.20;;
12511;SDS011;6321;53.798;10.382;2022-09-12T15:51:15;2.70;;;2.10;;
12511;SDS011;6321;53.798;10.382;2022-09-12T15:53:42;2.60;;;2.40;;
12511;SDS011;6321;53.798;10.382;2022-09-12T15:56:08;2.90;;;2.07;;
12511;SDS011;6321;53.798;10.382;2022-09-12T15:58:35;2.50;;;1.93;;
12511;SDS011;6321;53.798;10.382;2022-09-12T16:01:02;1.83;;;1.73;;
12511;SDS011;6321;53.798;10.382;2022-09-12T16:03:28;2.73;;;2.40;;
12511;SDS011;6321;53.798;10.382;2022-09-12T16:05:55;2.00;;;1.90;;
12511;SDS011;6321;53.798;10.382;2022-09-12T16:08:21;3.47;;;1.90;;
12511;SDS011;6321;53.798;10.382;2022-09-12T16:10:48;1.77;;;1.67;;
12511;SDS011;6321;53.798;10.382;2022-09-12T16:13:16;2.20;;;2.00;;
12511;SDS011;6321;53.798;10.382;2022-09-12T16:15:42;3.27;;;2.10;;
12511;SDS011;6321;53.798;10.382;2022-09-12T16:18:08;2.70;;;1.90;;
12511;SDS011;6321;53.798;10.382;2022-09-12T16:20:34;3.53;;;2.00;;
12511;SDS011;6321;53.798;10.382;2022-09-12T16:23:00;2.00;;;1.80;;
12511;SDS011;6321;53.798;10.382;2022-09-12T16:25:26;3.27;;;1.97;;
12511;SDS011;6321;53.798;10.382;2022-09-12T16:27:52;2.87;;;2.07;;
12511;SDS011;6321;53.798;10.382;2022-09-12T16:30:18;2.57;;;1.90;;
12511;SDS011;6321;53.798;10.382;2022-09-12T16:32:44;2.03;;;1.83;;
12511;SDS011;6321;53.798;10.382;2022-09-12T16:35:10;2.17;;;2.03;;
12511;SDS011;6321;53.798;10.382;2022-09-12T16:37:36;2.00;;;1.87;;
12511;SDS011;6321;53.798;10.382;2022-09-12T16:40:03;2.03;;;1.83;;
12511;SDS011;6321;53.798;10.382;2022-09-12T16:42:29;2.00;;;1.90;;
12511;SDS011;6321;53.798;10.382;2022-09-12T16:44:55;1.90;;;1.80;;
12511;SDS011;6321;53.798;10.382;2022-09-12T16:47:21;4.77;;;1.90;;
12511;SDS011;6321;53.798;10.382;2022-09-12T16:49:47;2.17;;;1.90;;
12511;SDS011;6321;53.798;10.382;2022-09-12T16:52:15;3.03;;;1.90;;
12511;SDS011;6321;53.798;10.382;2022-09-12T16:54:41;3.43;;;2.00;;
12511;SDS011;6321;53.798;10.382;2022-09-12T16:57:10;2.97;;;1.90;;
12511;SDS011;6321;53.798;10.382;2022-09-12T16:59:36;3.73;;;1.90;;
12511;SDS011;6321;53.798;10.382;2022-09-12T17:02:02;2.17;;;2.07;;
12511;SDS011;6321;53.798;10.382;2022-09-12T17:04:28;2.20;;;1.70;;
12511;SDS011;6321;53.798;10.382;2022-09-12T17:06:54;2.70;;;2.10;;
12511;SDS011;6321;53.798;10.382;2022-09-12T17:09:23;2.17;;;2.07;;
12511;SDS011;6321;53.798;10.382;2022-09-12T17:11:49;2.10;;;2.00;;
12511;SDS011;6321;53.798;10.382;2022-09-12T17:14:16;2.83;;;1.97;;